createdAt,value
2023-03-31T00:00:58.173Z,95985.13
2023-03-31T00:03:26.663Z,95988.59
2023-03-31T00:05:59.268Z,95986.66
2023-03-31T00:08:30.587Z,95981.59
2023-03-31T00:11:01.709Z,95976.31
2023-03-31T00:13:30.867Z,95977.75
2023-03-31T00:16:03.738Z,95969.84
2023-03-31T00:18:32.351Z,95964.94
2023-03-31T00:21:09.748Z,95960.31
2023-03-31T00:23:37.810Z,95957.31
2023-03-31T00:26:06.388Z,95962.59
2023-03-31T00:28:34.701Z,95952.69
2023-03-31T00:31:05.287Z,95944.91
2023-03-31T00:33:33.253Z,95936.41
2023-03-31T00:36:02.197Z,95933.09
2023-03-31T00:38:30.954Z,95929.41
2023-03-31T00:40:59.353Z,95935.50
2023-03-31T00:43:33.855Z,95922.53
2023-03-31T00:46:17.770Z,95943.97
2023-03-31T00:48:51.940Z,95941.09
2023-03-31T00:51:23.584Z,95931.13
2023-03-31T00:53:57.420Z,95927.81
2023-03-31T00:56:27.735Z,95910.22
2023-03-31T00:59:01.529Z,95902.44
2023-03-31T01:01:32.053Z,95910.38
2023-03-31T01:04:00.262Z,95904.03
2023-03-31T01:06:30.752Z,95906.69
2023-03-31T01:08:59.374Z,95894.59
2023-03-31T01:11:30.883Z,95883.69
2023-03-31T01:13:59.777Z,95874.88
2023-03-31T01:16:27.888Z,95868.81
2023-03-31T01:18:57.461Z,95864.41
2023-03-31T01:22:12.829Z,95863.03
2023-03-31T01:25:33.856Z,95867.47
2023-03-31T01:28:24.621Z,95861.44
2023-03-31T01:31:59.034Z,95871.34
2023-03-31T01:35:10.182Z,95866.59
2023-03-31T01:38:22.153Z,95857.25
2023-03-31T01:41:09.299Z,95851.00
2023-03-31T01:43:46.971Z,95855.97
2023-03-31T01:46:28.923Z,95860.47
2023-03-31T01:49:09.098Z,95852.31
2023-03-31T01:51:46.572Z,95871.81
2023-03-31T01:54:22.000Z,95861.25
2023-03-31T01:56:57.921Z,95856.78
2023-03-31T01:59:32.608Z,95859.50
2023-03-31T02:02:06.761Z,95853.31
2023-03-31T02:04:39.875Z,95844.84
2023-03-31T02:07:15.105Z,95838.31
2023-03-31T02:09:48.608Z,95840.44
2023-03-31T02:12:21.357Z,95839.31
2023-03-31T02:14:53.633Z,95829.09
2023-03-31T02:17:30.442Z,95822.53
2023-03-31T02:20:05.604Z,95820.94
2023-03-31T02:22:38.728Z,95815.50
2023-03-31T02:25:12.197Z,95800.75
2023-03-31T02:27:44.382Z,95799.56
2023-03-31T02:30:14.115Z,95787.00
2023-03-31T02:32:46.621Z,95784.78
2023-03-31T02:35:20.096Z,95761.03
2023-03-31T02:37:49.682Z,95743.78
2023-03-31T02:40:27.536Z,95728.28
2023-03-31T02:42:57.216Z,95720.44
2023-03-31T02:45:45.456Z,95708.22
2023-03-31T02:48:19.732Z,95714.97
2023-03-31T02:51:27.397Z,95712.44
2023-03-31T02:54:22.599Z,95690.47
2023-03-31T02:57:15.992Z,95689.88
2023-03-31T02:59:59.013Z,95679.97
2023-03-31T03:02:38.623Z,95678.84
2023-03-31T03:05:27.101Z,95673.03
2023-03-31T03:08:35.605Z,95653.69
2023-03-31T03:11:18.653Z,95643.34
2023-03-31T03:13:52.018Z,95631.75
2023-03-31T03:16:27.414Z,95620.66
2023-03-31T03:19:00.440Z,95609.00
2023-03-31T03:21:28.707Z,95602.41
2023-03-31T03:23:57.160Z,95595.38
2023-03-31T03:26:28.036Z,95591.84
2023-03-31T03:28:57.279Z,95589.94
2023-03-31T03:31:26.798Z,95592.81
2023-03-31T03:33:55.832Z,95584.84
2023-03-31T03:36:24.016Z,95590.13
2023-03-31T03:38:52.070Z,95575.34
2023-03-31T03:41:20.057Z,95575.97
2023-03-31T03:43:48.114Z,95571.16
2023-03-31T03:46:16.214Z,95561.09
2023-03-31T03:48:46.228Z,95555.69
2023-03-31T03:51:14.205Z,95535.69
2023-03-31T03:53:42.211Z,95524.09
2023-03-31T03:56:10.275Z,95516.44
2023-03-31T03:58:38.267Z,95518.81
2023-03-31T04:01:06.758Z,95513.22
2023-03-31T04:03:34.829Z,95499.84
2023-03-31T04:06:04.630Z,95494.16
2023-03-31T04:08:32.849Z,95487.44
2023-03-31T04:11:01.460Z,95486.91
2023-03-31T04:13:29.645Z,95479.72
2023-03-31T04:15:57.671Z,95486.09
2023-03-31T04:18:25.799Z,95488.78
2023-03-31T04:21:03.920Z,95477.94
2023-03-31T04:23:34.677Z,95478.47
2023-03-31T04:26:04.273Z,95480.59
2023-03-31T04:28:34.903Z,95481.06
2023-03-31T04:31:03.960Z,95481.47
2023-03-31T04:33:34.040Z,95484.81
2023-03-31T04:36:06.726Z,95476.91
2023-03-31T04:38:36.192Z,95470.34
2023-03-31T04:41:04.261Z,95469.91
2023-03-31T04:43:32.207Z,95461.88
2023-03-31T04:46:00.315Z,95459.25
2023-03-31T04:48:28.399Z,95459.31
2023-03-31T04:50:56.461Z,95454.28
2023-03-31T04:53:24.839Z,95460.88
2023-03-31T04:55:54.766Z,95457.41
2023-03-31T04:58:22.907Z,95456.03
2023-03-31T05:00:51.039Z,95441.22
2023-03-31T05:03:19.503Z,95448.50
2023-03-31T05:05:47.836Z,95456.84
2023-03-31T05:08:16.124Z,95458.09
2023-03-31T05:10:44.575Z,95469.41
2023-03-31T05:13:13.959Z,95488.94
2023-03-31T05:15:44.968Z,95491.81
2023-03-31T05:18:13.074Z,95502.38
2023-03-31T05:20:41.160Z,95496.19
2023-03-31T05:23:09.264Z,95488.47
2023-03-31T05:25:37.289Z,95476.09
2023-03-31T05:28:05.986Z,95480.78
2023-03-31T05:30:35.394Z,95470.25
2023-03-31T05:33:03.469Z,95469.97
2023-03-31T05:35:31.598Z,95461.16
2023-03-31T05:37:59.669Z,95466.38
2023-03-31T05:40:27.690Z,95457.03
2023-03-31T05:42:55.716Z,95456.59
2023-03-31T05:45:23.736Z,95454.44
2023-03-31T05:47:53.086Z,95444.06
2023-03-31T05:50:21.161Z,95414.75
2023-03-31T05:52:49.167Z,95417.25
2023-03-31T05:55:18.536Z,95407.25
2023-03-31T05:57:46.533Z,95412.56
2023-03-31T06:00:16.369Z,95411.78
2023-03-31T06:02:44.456Z,95409.38
2023-03-31T06:05:13.943Z,95406.28
2023-03-31T06:07:41.927Z,95392.56
2023-03-31T06:10:11.065Z,95386.28
2023-03-31T06:12:39.195Z,95374.63
2023-03-31T06:15:08.811Z,95365.69
2023-03-31T06:17:38.460Z,95355.56
2023-03-31T06:20:20.127Z,95352.97
2023-03-31T06:22:53.807Z,95369.38
2023-03-31T06:25:21.860Z,95366.50
2023-03-31T06:27:49.924Z,95359.16
2023-03-31T06:30:18.309Z,95361.81
2023-03-31T06:32:46.358Z,95369.53
2023-03-31T06:35:14.410Z,95361.06
2023-03-31T06:37:42.474Z,95361.56
2023-03-31T06:40:13.313Z,95364.75
2023-03-31T06:42:41.370Z,95369.47
2023-03-31T06:45:10.777Z,95367.34
2023-03-31T06:47:41.339Z,95373.63
2023-03-31T06:50:11.419Z,95392.72
2023-03-31T06:52:40.810Z,95406.63
2023-03-31T06:55:13.127Z,95425.22
2023-03-31T06:57:41.323Z,95431.03
2023-03-31T07:00:11.269Z,95432.41
2023-03-31T07:02:39.644Z,95429.19
2023-03-31T07:05:09.063Z,95406.13
2023-03-31T07:07:37.360Z,95408.19
2023-03-31T07:10:06.746Z,95336.31
2023-03-31T07:12:36.386Z,95365.19
2023-03-31T07:15:05.346Z,95351.69
2023-03-31T07:17:33.837Z,95357.47
2023-03-31T07:20:02.143Z,95340.84
2023-03-31T07:22:30.542Z,95338.75
2023-03-31T07:24:58.784Z,95349.19
2023-03-31T07:27:28.953Z,95358.63
2023-03-31T07:29:58.549Z,95348.81
2023-03-31T07:32:28.877Z,95345.69
2023-03-31T07:34:57.431Z,95335.09
2023-03-31T07:37:25.786Z,95328.69
2023-03-31T07:39:56.984Z,95334.56
2023-03-31T07:42:25.245Z,95327.44
2023-03-31T07:44:53.559Z,95353.16
2023-03-31T07:47:24.161Z,95346.09
2023-03-31T07:49:52.524Z,95331.75
2023-03-31T07:52:23.565Z,95333.81
2023-03-31T07:54:51.702Z,95336.00
2023-03-31T07:57:20.435Z,95337.09
2023-03-31T07:59:48.513Z,95330.03
2023-03-31T08:02:18.799Z,95344.28
2023-03-31T08:04:48.766Z,95335.94
2023-03-31T08:07:17.859Z,95331.03
2023-03-31T08:09:47.843Z,95338.25
2023-03-31T08:12:16.120Z,95330.16
2023-03-31T08:14:44.315Z,95330.75
2023-03-31T08:17:12.617Z,95333.94
2023-03-31T08:19:40.852Z,95326.41
2023-03-31T08:22:10.217Z,95322.50
2023-03-31T08:24:38.239Z,95313.56
2023-03-31T08:27:11.949Z,95317.56
2023-03-31T08:29:40.580Z,95316.00
2023-03-31T08:32:08.749Z,95317.94
2023-03-31T08:34:38.083Z,95313.72
2023-03-31T08:37:06.198Z,95308.50
2023-03-31T08:39:37.195Z,95305.09
2023-03-31T08:42:15.407Z,95301.94
2023-03-31T08:44:47.693Z,95309.31
2023-03-31T08:47:20.116Z,95309.88
2023-03-31T08:49:53.109Z,95307.72
2023-03-31T08:52:28.017Z,95305.41
2023-03-31T08:55:02.363Z,95310.41
2023-03-31T08:57:40.940Z,95302.75
2023-03-31T09:00:16.704Z,95297.72
2023-03-31T09:02:53.077Z,95288.53
2023-03-31T09:05:59.601Z,95284.56
2023-03-31T09:08:40.562Z,95271.59
2023-03-31T09:11:15.834Z,95288.84
2023-03-31T09:14:14.522Z,95280.38
2023-03-31T09:16:49.639Z,95278.00
2023-03-31T09:19:26.061Z,95274.28
2023-03-31T09:21:56.906Z,95271.13
2023-03-31T09:24:32.646Z,95260.28
2023-03-31T09:27:05.791Z,95272.19
2023-03-31T09:29:43.381Z,95268.50
2023-03-31T09:32:17.462Z,95281.72
2023-03-31T09:34:48.070Z,95278.28
2023-03-31T09:37:16.124Z,95286.22
2023-03-31T09:39:44.502Z,95263.19
2023-03-31T09:42:15.361Z,95263.97
2023-03-31T09:44:47.386Z,95244.91
2023-03-31T09:47:22.592Z,95253.13
2023-03-31T09:49:53.735Z,95248.88
2023-03-31T09:52:31.575Z,95227.66
2023-03-31T09:55:02.559Z,95241.50
2023-03-31T09:57:36.133Z,95230.09
2023-03-31T10:00:16.069Z,95219.50
2023-03-31T10:02:49.484Z,95218.72
2023-03-31T10:05:29.522Z,95214.22
2023-03-31T10:08:22.041Z,95229.84
2023-03-31T10:10:52.847Z,95219.22
2023-03-31T10:13:26.065Z,95209.38
2023-03-31T10:15:56.003Z,95213.03
2023-03-31T10:18:36.110Z,95210.34
2023-03-31T10:21:07.993Z,95225.22
2023-03-31T10:23:37.236Z,95219.66
2023-03-31T10:26:06.578Z,95203.78
2023-03-31T10:28:37.880Z,95216.00
2023-03-31T10:31:06.291Z,95199.63
2023-03-31T10:33:41.785Z,95202.50
2023-03-31T10:36:26.994Z,95188.97
2023-03-31T10:38:56.493Z,95200.56
2023-03-31T10:41:29.046Z,95187.31
2023-03-31T10:44:00.162Z,95191.84
2023-03-31T10:46:43.964Z,95194.28
2023-03-31T10:49:26.610Z,95178.34
2023-03-31T10:51:57.529Z,95188.47
2023-03-31T10:54:26.679Z,95176.28
2023-03-31T10:56:58.941Z,95166.78
2023-03-31T10:59:51.835Z,95176.09
2023-03-31T11:02:53.513Z,95194.91
2023-03-31T11:05:28.933Z,95184.31
2023-03-31T11:08:13.946Z,95210.50
2023-03-31T11:11:08.518Z,95243.53
2023-03-31T11:13:45.286Z,95290.59
2023-03-31T11:16:24.143Z,95316.38
2023-03-31T11:19:16.608Z,95320.59
2023-03-31T11:21:57.856Z,95305.66
2023-03-31T11:24:51.774Z,95300.88
2023-03-31T11:27:39.313Z,95286.84
2023-03-31T11:30:18.286Z,95290.91
2023-03-31T11:33:08.062Z,95295.97
2023-03-31T11:35:54.347Z,95301.06
2023-03-31T11:38:40.823Z,95298.72
2023-03-31T11:41:12.225Z,95299.91
2023-03-31T11:43:47.879Z,95291.81
2023-03-31T11:46:22.156Z,95284.41
2023-03-31T11:48:58.088Z,95279.75
2023-03-31T11:51:30.540Z,95267.69
2023-03-31T11:54:02.480Z,95266.16
2023-03-31T11:56:37.355Z,95266.31
2023-03-31T11:59:07.315Z,95260.19
2023-03-31T12:01:43.906Z,95254.31
2023-03-31T12:04:27.263Z,95240.47
2023-03-31T12:07:03.930Z,95239.00
2023-03-31T12:09:39.705Z,95233.69
2023-03-31T12:12:14.061Z,95238.22
2023-03-31T12:14:47.087Z,95229.47
2023-03-31T12:17:18.895Z,95234.94
2023-03-31T12:19:53.371Z,95226.34
2023-03-31T12:22:27.069Z,95215.56
2023-03-31T12:24:55.472Z,95206.34
2023-03-31T12:27:28.591Z,95206.41
2023-03-31T12:30:01.998Z,95206.72
2023-03-31T12:32:34.608Z,95201.72
2023-03-31T12:35:12.994Z,95198.81
2023-03-31T12:38:20.424Z,95174.22
2023-03-31T12:41:03.412Z,95167.38
2023-03-31T12:44:11.460Z,95164.50
2023-03-31T12:47:18.496Z,95153.63
2023-03-31T12:50:03.709Z,95164.19
2023-03-31T12:52:46.781Z,95163.41
2023-03-31T12:55:35.589Z,95182.72
2023-03-31T12:58:41.853Z,95178.50
2023-03-31T13:01:21.520Z,95200.47
2023-03-31T13:04:21.029Z,95205.47
2023-03-31T13:06:55.741Z,95219.41
2023-03-31T13:09:52.300Z,95223.84
2023-03-31T13:12:25.455Z,95222.78
2023-03-31T13:14:58.953Z,95205.41
2023-03-31T13:17:34.459Z,95188.31
2023-03-31T13:20:31.535Z,95179.13
2023-03-31T13:23:06.754Z,95178.78
2023-03-31T13:25:45.486Z,95181.88
2023-03-31T13:28:40.036Z,95174.22
2023-03-31T13:31:11.154Z,95167.69
2023-03-31T13:33:48.390Z,95159.22
2023-03-31T13:36:58.091Z,95191.66
2023-03-31T13:39:53.594Z,95167.28
2023-03-31T13:43:12.924Z,95158.03
2023-03-31T13:46:01.415Z,95133.13
2023-03-31T13:48:40.850Z,95128.09
2023-03-31T13:51:30.026Z,95107.97
2023-03-31T13:54:34.158Z,95111.75
2023-03-31T13:58:05.438Z,95117.56
2023-03-31T14:00:53.744Z,95115.91
2023-03-31T14:03:39.303Z,95117.94
2023-03-31T14:06:16.078Z,95140.91
2023-03-31T14:08:52.362Z,95127.69
2023-03-31T14:11:24.984Z,95129.41
2023-03-31T14:14:07.488Z,95138.03
2023-03-31T14:16:40.742Z,95126.81
2023-03-31T14:19:47.988Z,95135.63
2023-03-31T14:22:32.230Z,95139.09
2023-03-31T14:25:15.615Z,95141.06
2023-03-31T14:28:02.397Z,95143.50
2023-03-31T14:30:46.771Z,95141.94
2023-03-31T14:33:34.686Z,95130.16
2023-03-31T14:36:15.825Z,95122.25
2023-03-31T14:38:45.895Z,95125.97
2023-03-31T14:41:21.295Z,95121.28
2023-03-31T14:43:51.831Z,95142.63
2023-03-31T14:46:24.643Z,95131.03
2023-03-31T14:48:53.228Z,95129.72
2023-03-31T14:51:28.926Z,95120.25
2023-03-31T14:53:58.377Z,95121.84
2023-03-31T14:56:34.755Z,95108.34
2023-03-31T14:59:04.212Z,95110.47
2023-03-31T15:01:37.756Z,95123.41
2023-03-31T15:04:10.484Z,95115.47
2023-03-31T15:06:39.981Z,95113.88
2023-03-31T15:09:10.091Z,95108.59
2023-03-31T15:11:38.166Z,95103.84
2023-03-31T15:14:07.552Z,95107.56
2023-03-31T15:16:43.445Z,95112.28
2023-03-31T15:19:17.834Z,95103.34
2023-03-31T15:21:47.745Z,95104.91
2023-03-31T15:24:16.378Z,95104.69
2023-03-31T15:26:50.467Z,95090.63
2023-03-31T15:29:23.260Z,95111.03
2023-03-31T15:31:53.035Z,95100.66
2023-03-31T15:34:27.266Z,95119.41
2023-03-31T15:36:57.286Z,95108.34
2023-03-31T15:39:26.771Z,95108.06
2023-03-31T15:41:56.504Z,95100.66
2023-03-31T15:44:38.886Z,95094.56
2023-03-31T15:47:17.551Z,95092.19
2023-03-31T15:49:52.662Z,95088.47
2023-03-31T15:52:30.219Z,95095.84
2023-03-31T15:54:58.811Z,95093.75
2023-03-31T15:57:35.431Z,95099.03
2023-03-31T16:00:07.216Z,95101.44
2023-03-31T16:02:47.173Z,95122.00
2023-03-31T16:05:43.569Z,95129.66
2023-03-31T16:08:20.291Z,95132.31
2023-03-31T16:10:51.436Z,95148.56
2023-03-31T16:13:23.369Z,95137.19
2023-03-31T16:15:55.117Z,95159.78
2023-03-31T16:18:34.163Z,95166.44
2023-03-31T16:21:06.137Z,95177.75
2023-03-31T16:23:38.687Z,95161.38
2023-03-31T16:26:07.905Z,95139.34
2023-03-31T16:28:38.698Z,95132.97
2023-03-31T16:31:27.167Z,95144.38
2023-03-31T16:33:58.195Z,95140.53
2023-03-31T16:36:27.192Z,95143.28
2023-03-31T16:38:55.793Z,95138.66
2023-03-31T16:41:24.547Z,95140.53
2023-03-31T16:43:54.216Z,95127.66
2023-03-31T16:46:23.663Z,95119.00
2023-03-31T16:48:52.784Z,95110.09
2023-03-31T16:51:23.281Z,95118.25
2023-03-31T16:53:51.524Z,95122.78
2023-03-31T16:56:20.977Z,95118.00
2023-03-31T16:58:49.114Z,95123.03
2023-03-31T17:01:17.413Z,95122.34
2023-03-31T17:03:45.685Z,95123.94
2023-03-31T17:06:15.761Z,95130.03
2023-03-31T17:08:45.712Z,95134.53
2023-03-31T17:11:15.911Z,95129.75
2023-03-31T17:13:44.658Z,95140.47
2023-03-31T17:16:22.040Z,95128.06
2023-03-31T17:18:55.461Z,95138.88
2023-03-31T17:21:23.722Z,95143.56
2023-03-31T17:23:53.210Z,95148.06
2023-03-31T17:26:21.953Z,95153.88
2023-03-31T17:28:50.549Z,95150.34
2023-03-31T17:31:21.088Z,95157.88
2023-03-31T17:33:49.731Z,95161.41
2023-03-31T17:36:18.353Z,95164.28
2023-03-31T17:38:46.426Z,95175.06
2023-03-31T17:41:17.657Z,95182.22
2023-03-31T17:43:47.200Z,95190.97
2023-03-31T17:46:15.480Z,95207.03
2023-03-31T17:48:45.558Z,95214.63
2023-03-31T17:51:17.135Z,95217.09
2023-03-31T17:53:46.936Z,95217.28
2023-03-31T17:56:18.611Z,95214.72
2023-03-31T17:58:47.403Z,95217.88
2023-03-31T18:01:16.333Z,95231.50
2023-03-31T18:03:46.146Z,95220.97
2023-03-31T18:06:15.704Z,95213.00
2023-03-31T18:08:44.382Z,95210.91
2023-03-31T18:11:13.347Z,95200.38
2023-03-31T18:13:42.706Z,95190.91
2023-03-31T18:16:12.893Z,95197.16
2023-03-31T18:18:42.371Z,95198.97
2023-03-31T18:21:13.133Z,95205.84
2023-03-31T18:23:42.132Z,95211.59
2023-03-31T18:26:12.158Z,95209.22
2023-03-31T18:28:41.724Z,95205.22
2023-03-31T18:31:10.858Z,95205.50
2023-03-31T18:33:39.049Z,95206.53
2023-03-31T18:36:08.488Z,95204.41
2023-03-31T18:38:36.923Z,95202.50
2023-03-31T18:41:06.084Z,95197.44
2023-03-31T18:43:34.581Z,95202.94
2023-03-31T18:46:04.356Z,95196.88
2023-03-31T18:48:32.872Z,95190.25
2023-03-31T18:51:00.901Z,95192.03
2023-03-31T18:53:30.040Z,95193.91
2023-03-31T18:55:59.926Z,95194.06
2023-03-31T18:58:33.466Z,95198.66
2023-03-31T19:01:03.197Z,95196.78
2023-03-31T19:03:32.520Z,95197.88
2023-03-31T19:06:06.680Z,95202.38
2023-03-31T19:08:34.689Z,95194.72
2023-03-31T19:11:10.051Z,95184.94
2023-03-31T19:13:39.946Z,95194.63
2023-03-31T19:16:10.043Z,95188.50
2023-03-31T19:18:38.538Z,95200.06
2023-03-31T19:21:07.050Z,95199.25
2023-03-31T19:23:38.874Z,95189.34
2023-03-31T19:26:07.114Z,95199.22
2023-03-31T19:28:35.177Z,95192.91
2023-03-31T19:31:06.131Z,95180.31
2023-03-31T19:33:35.537Z,95192.56
2023-03-31T19:36:03.835Z,95183.00
2023-03-31T19:38:36.568Z,95190.88
2023-03-31T19:41:05.950Z,95191.06
2023-03-31T19:43:34.777Z,95201.53
2023-03-31T19:46:03.400Z,95198.97
2023-03-31T19:48:33.863Z,95201.34
2023-03-31T19:51:05.755Z,95196.56
2023-03-31T19:53:34.336Z,95203.31
2023-03-31T19:56:05.328Z,95197.81
2023-03-31T19:58:35.855Z,95201.28
2023-03-31T20:01:06.457Z,95200.69
2023-03-31T20:03:35.886Z,95200.94
2023-03-31T20:06:07.813Z,95191.56
2023-03-31T20:08:36.520Z,95195.16
2023-03-31T20:11:08.142Z,95205.97
2023-03-31T20:13:36.730Z,95212.75
2023-03-31T20:16:07.944Z,95209.06
2023-03-31T20:18:38.927Z,95212.19
2023-03-31T20:21:11.364Z,95202.56
2023-03-31T20:23:41.688Z,95206.44
2023-03-31T20:26:12.706Z,95210.22
2023-03-31T20:28:41.755Z,95204.19
2023-03-31T20:31:11.304Z,95206.56
2023-03-31T20:33:39.533Z,95202.16
2023-03-31T20:36:11.305Z,95192.47
2023-03-31T20:38:40.637Z,95207.06
2023-03-31T20:41:10.599Z,95206.13
2023-03-31T20:43:39.922Z,95213.25
2023-03-31T20:46:10.593Z,95205.78
2023-03-31T20:48:41.393Z,95208.03
2023-03-31T20:51:12.904Z,95214.34
2023-03-31T20:53:43.763Z,95213.84
2023-03-31T20:56:12.767Z,95214.75
2023-03-31T20:58:43.925Z,95213.84
2023-03-31T21:01:13.527Z,95222.97
2023-03-31T21:03:42.130Z,95214.53
2023-03-31T21:06:14.392Z,95222.44
2023-03-31T21:08:45.394Z,95215.81
2023-03-31T21:11:14.496Z,95215.50
2023-03-31T21:13:44.711Z,95225.91
2023-03-31T21:16:13.478Z,95221.00
2023-03-31T21:18:41.622Z,95215.50
2023-03-31T21:21:14.379Z,95220.09
2023-03-31T21:23:42.945Z,95222.63
2023-03-31T21:26:14.892Z,95218.13
2023-03-31T21:28:43.582Z,95225.84
2023-03-31T21:31:14.124Z,95228.38
2023-03-31T21:33:44.558Z,95235.88
2023-03-31T21:36:17.717Z,95239.50
2023-03-31T21:38:46.064Z,95238.28
2023-03-31T21:41:17.486Z,95234.16
2023-03-31T21:43:46.203Z,95237.97
2023-03-31T21:46:17.457Z,95248.91
2023-03-31T21:48:46.144Z,95255.53
2023-03-31T21:51:15.870Z,95257.50
2023-03-31T21:53:43.994Z,95255.94
2023-03-31T21:56:12.207Z,95264.38
2023-03-31T21:58:40.370Z,95257.16
2023-03-31T22:01:08.796Z,95259.50
2023-03-31T22:03:38.464Z,95264.38
2023-03-31T22:06:08.290Z,95258.22
2023-03-31T22:08:39.728Z,95254.72
2023-03-31T22:11:10.111Z,95253.25
2023-03-31T22:13:38.909Z,95255.09
2023-03-31T22:16:16.219Z,95261.03
2023-03-31T22:18:44.525Z,95267.22
2023-03-31T22:21:17.999Z,95255.00
2023-03-31T22:23:47.604Z,95256.22
2023-03-31T22:26:15.671Z,95256.63
2023-03-31T22:28:43.819Z,95254.72
2023-03-31T22:31:11.810Z,95254.53
2023-03-31T22:33:39.957Z,95247.13
2023-03-31T22:36:09.071Z,95250.56
2023-03-31T22:38:37.118Z,95251.44
2023-03-31T22:41:07.318Z,95247.44
2023-03-31T22:43:35.524Z,95246.19
2023-03-31T22:46:05.317Z,95244.75
2023-03-31T22:48:33.471Z,95239.81
2023-03-31T22:51:05.776Z,95237.13
2023-03-31T22:53:35.150Z,95247.88
2023-03-31T22:56:11.426Z,95244.84
2023-03-31T22:58:39.754Z,95243.97
2023-03-31T23:01:09.788Z,95249.06
2023-03-31T23:03:38.265Z,95253.38
2023-03-31T23:06:07.236Z,95249.56
2023-03-31T23:08:36.918Z,95248.28
2023-03-31T23:11:08.684Z,95240.63
2023-03-31T23:13:36.939Z,95247.75
2023-03-31T23:16:07.425Z,95247.34
2023-03-31T23:18:36.327Z,95252.91
2023-03-31T23:21:06.565Z,95245.06
2023-03-31T23:23:34.589Z,95245.91
2023-03-31T23:26:02.802Z,95243.66
2023-03-31T23:28:32.476Z,95245.41
2023-03-31T23:31:00.717Z,95249.41
2023-03-31T23:33:30.089Z,95249.63
2023-03-31T23:36:01.338Z,95241.91
2023-03-31T23:38:30.106Z,95251.31
2023-03-31T23:40:58.629Z,95248.59
2023-03-31T23:43:27.745Z,95242.72
2023-03-31T23:45:57.446Z,95247.56
2023-03-31T23:48:25.865Z,95248.13
2023-03-31T23:50:53.885Z,95240.16
2023-03-31T23:53:21.974Z,95240.88
2023-03-31T23:55:57.851Z,95239.84
2023-03-31T23:58:26.782Z,95231.88
